sensor_id;sensor_type;location;lat;lon;timestamp;pressure;altitude;pressure_sealevel;temperature;humidity
39455;BME280;25155;41.890;23.446;2023-08-12T00:00:03;92463.84;;;18.84;56.70
39455;BME280;25155;41.890;23.446;2023-08-12T00:02:36;92463.53;;;18.85;56.96
39455;BME280;25155;41.890;23.446;2023-08-12T00:05:04;92462.75;;;18.85;56.65
39455;BME280;25155;41.890;23.446;2023-08-12T00:07:32;92459.59;;;18.83;56.61
39455;BME280;25155;41.890;23.446;2023-08-12T00:09:59;92467.53;;;18.83;57.38
39455;BME280;25155;41.890;23.446;2023-08-12T00:12:26;92462.53;;;18.81;56.90
39455;BME280;25155;41.890;23.446;2023-08-12T00:14:55;92459.91;;;18.81;56.75
39455;BME280;25155;41.890;23.446;2023-08-12T00:17:24;92458.44;;;18.75;57.39
39455;BME280;25155;41.890;23.446;2023-08-12T00:19:51;92462.47;;;18.72;57.78
39455;BME280;25155;41.890;23.446;2023-08-12T00:22:18;92463.84;;;18.70;57.34
39455;BME280;25155;41.890;23.446;2023-08-12T00:24:45;92451.75;;;18.69;57.51
39455;BME280;25155;41.890;23.446;2023-08-12T00:27:12;92448.28;;;18.68;57.54
39455;BME280;25155;41.890;23.446;2023-08-12T00:29:39;92458.88;;;18.68;57.36
39455;BME280;25155;41.890;23.446;2023-08-12T00:32:08;92451.53;;;18.65;57.41
39455;BME280;25155;41.890;23.446;2023-08-12T00:34:37;92449.22;;;18.63;57.47
39455;BME280;25155;41.890;23.446;2023-08-12T00:37:04;92449.22;;;18.63;57.58
39455;BME280;25155;41.890;23.446;2023-08-12T00:39:31;92447.16;;;18.60;57.43
39455;BME280;25155;41.890;23.446;2023-08-12T00:41:59;92447.47;;;18.59;57.55
39455;BME280;25155;41.890;23.446;2023-08-12T00:44:26;92449.13;;;18.55;56.92
39455;BME280;25155;41.890;23.446;2023-08-12T00:46:53;92457.66;;;18.52;57.07
39455;BME280;25155;41.890;23.446;2023-08-12T00:49:21;92456.41;;;18.49;56.90
39455;BME280;25155;41.890;23.446;2023-08-12T00:51:52;92450.13;;;18.45;57.31
39455;BME280;25155;41.890;23.446;2023-08-12T00:54:20;92442.50;;;18.43;57.28
39455;BME280;25155;41.890;23.446;2023-08-12T00:56:49;92439.69;;;18.40;57.24
39455;BME280;25155;41.890;23.446;2023-08-12T00:59:17;92442.63;;;18.38;57.14
39455;BME280;25155;41.890;23.446;2023-08-12T01:01:47;92425.84;;;18.34;56.85
39455;BME280;25155;41.890;23.446;2023-08-12T01:04:15;92430.63;;;18.32;57.35
39455;BME280;25155;41.890;23.446;2023-08-12T01:06:42;92427.00;;;18.28;57.17
39455;BME280;25155;41.890;23.446;2023-08-12T01:09:12;92427.91;;;18.23;57.05
39455;BME280;25155;41.890;23.446;2023-08-12T01:11:46;92427.41;;;18.21;56.88
39455;BME280;25155;41.890;23.446;2023-08-12T01:14:20;92431.13;;;18.20;57.14
39455;BME280;25155;41.890;23.446;2023-08-12T01:16:53;92425.38;;;18.18;57.25
39455;BME280;25155;41.890;23.446;2023-08-12T01:19:30;92426.25;;;18.14;57.25
39455;BME280;25155;41.890;23.446;2023-08-12T01:22:00;92423.91;;;18.12;57.34
39455;BME280;25155;41.890;23.446;2023-08-12T01:24:33;92424.53;;;18.09;57.19
39455;BME280;25155;41.890;23.446;2023-08-12T01:27:02;92408.28;;;18.02;57.71
39455;BME280;25155;41.890;23.446;2023-08-12T01:29:29;92425.59;;;18.08;57.49
39455;BME280;25155;41.890;23.446;2023-08-12T01:32:03;92422.00;;;18.04;57.27
39455;BME280;25155;41.890;23.446;2023-08-12T01:34:36;92425.22;;;18.01;57.63
39455;BME280;25155;41.890;23.446;2023-08-12T01:37:05;92423.06;;;18.03;57.74
39455;BME280;25155;41.890;23.446;2023-08-12T01:39:39;92419.44;;;17.99;57.48
39455;BME280;25155;41.890;23.446;2023-08-12T01:42:07;92417.91;;;17.98;57.51
39455;BME280;25155;41.890;23.446;2023-08-12T01:44:34;92417.91;;;17.98;57.74
39455;BME280;25155;41.890;23.446;2023-08-12T01:47:01;92414.47;;;17.97;57.60
39455;BME280;25155;41.890;23.446;2023-08-12T01:49:28;92409.50;;;17.96;57.72
39455;BME280;25155;41.890;23.446;2023-08-12T01:51:55;92414.78;;;17.96;57.71
39455;BME280;25155;41.890;23.446;2023-08-12T01:54:23;92412.13;;;17.96;57.95
39455;BME280;25155;41.890;23.446;2023-08-12T01:56:51;92414.84;;;17.91;57.80
39455;BME280;25155;41.890;23.446;2023-08-12T01:59:18;92416.72;;;17.90;57.87
39455;BME280;25155;41.890;23.446;2023-08-12T02:01:45;92425.75;;;17.89;57.75
39455;BME280;25155;41.890;23.446;2023-08-12T02:04:13;92418.59;;;17.89;58.48
39455;BME280;25155;41.890;23.446;2023-08-12T02:06:40;92417.31;;;17.87;58.97
39455;BME280;25155;41.890;23.446;2023-08-12T02:09:07;92415.53;;;17.82;58.89
39455;BME280;25155;41.890;23.446;2023-08-12T02:11:34;92424.06;;;17.79;58.22
39455;BME280;25155;41.890;23.446;2023-08-12T02:14:03;92421.19;;;17.76;58.81
39455;BME280;25155;41.890;23.446;2023-08-12T02:16:30;92420.44;;;17.75;58.84
39455;BME280;25155;41.890;23.446;2023-08-12T02:18:57;92415.75;;;17.72;59.13
39455;BME280;25155;41.890;23.446;2023-08-12T02:21:24;92418.19;;;17.68;59.22
39455;BME280;25155;41.890;23.446;2023-08-12T02:23:51;92415.84;;;17.67;59.03
39455;BME280;25155;41.890;23.446;2023-08-12T02:26:18;92421.41;;;17.65;58.95
39455;BME280;25155;41.890;23.446;2023-08-12T02:28:46;92425.91;;;17.65;59.33
39455;BME280;25155;41.890;23.446;2023-08-12T02:31:15;92428.06;;;17.63;59.14
39455;BME280;25155;41.890;23.446;2023-08-12T02:33:43;92416.22;;;17.60;58.87
39455;BME280;25155;41.890;23.446;2023-08-12T02:36:10;92425.72;;;17.61;58.98
39455;BME280;25155;41.890;23.446;2023-08-12T02:38:37;92426.78;;;17.60;58.95
39455;BME280;25155;41.890;23.446;2023-08-12T02:41:04;92428.66;;;17.60;59.39
39455;BME280;25155;41.890;23.446;2023-08-12T02:43:32;92430.00;;;17.57;59.69
39455;BME280;25155;41.890;23.446;2023-08-12T02:45:59;92434.81;;;17.55;59.20
39455;BME280;25155;41.890;23.446;2023-08-12T02:48:27;92437.72;;;17.53;59.46
39455;BME280;25155;41.890;23.446;2023-08-12T02:50:55;92439.59;;;17.53;59.50
39455;BME280;25155;41.890;23.446;2023-08-12T02:53:22;92431.97;;;17.51;59.23
39455;BME280;25155;41.890;23.446;2023-08-12T02:55:49;92438.78;;;17.52;59.75
39455;BME280;25155;41.890;23.446;2023-08-12T02:58:16;92436.47;;;17.51;59.17
39455;BME280;25155;41.890;23.446;2023-08-12T03:00:43;92435.97;;;17.49;59.27
39455;BME280;25155;41.890;23.446;2023-08-12T03:03:10;92438.88;;;17.47;59.49
39455;BME280;25155;41.890;23.446;2023-08-12T03:05:39;92440.28;;;17.45;59.48
39455;BME280;25155;41.890;23.446;2023-08-12T03:08:06;92433.41;;;17.44;60.12
39455;BME280;25155;41.890;23.446;2023-08-12T03:10:34;92430.59;;;17.40;60.50
39455;BME280;25155;41.890;23.446;2023-08-12T03:13:01;92441.13;;;17.40;59.95
39455;BME280;25155;41.890;23.446;2023-08-12T03:15:28;92444.06;;;17.39;60.36
39455;BME280;25155;41.890;23.446;2023-08-12T03:17:56;92434.91;;;17.36;60.16
39455;BME280;25155;41.890;23.446;2023-08-12T03:20:24;92431.75;;;17.34;59.90
39455;BME280;25155;41.890;23.446;2023-08-12T03:22:52;92439.19;;;17.32;60.22
39455;BME280;25155;41.890;23.446;2023-08-12T03:25:20;92437.31;;;17.32;60.05
39455;BME280;25155;41.890;23.446;2023-08-12T03:27:48;92437.03;;;17.34;60.12
39455;BME280;25155;41.890;23.446;2023-08-12T03:30:16;92438.13;;;17.33;60.06
39455;BME280;25155;41.890;23.446;2023-08-12T03:32:43;92437.59;;;17.31;60.25
39455;BME280;25155;41.890;23.446;2023-08-12T03:35:10;92437.13;;;17.29;60.62
39455;BME280;25155;41.890;23.446;2023-08-12T03:37:54;92444.84;;;17.25;61.23
39455;BME280;25155;41.890;23.446;2023-08-12T03:40:21;92447.28;;;17.22;60.75
39455;BME280;25155;41.890;23.446;2023-08-12T03:42:48;92445.41;;;17.22;60.97
39455;BME280;25155;41.890;23.446;2023-08-12T03:45:15;92449.34;;;17.25;60.37
39455;BME280;25155;41.890;23.446;2023-08-12T03:47:42;92448.25;;;17.26;60.51
39455;BME280;25155;41.890;23.446;2023-08-12T03:50:09;92447.47;;;17.25;60.46
39455;BME280;25155;41.890;23.446;2023-08-12T03:52:36;92449.34;;;17.25;60.38
39455;BME280;25155;41.890;23.446;2023-08-12T03:55:06;92445.69;;;17.21;60.64
39455;BME280;25155;41.890;23.446;2023-08-12T03:57:34;92445.41;;;17.22;60.75
39455;BME280;25155;41.890;23.446;2023-08-12T04:00:01;92458.31;;;17.24;60.25
39455;BME280;25155;41.890;23.446;2023-08-12T04:02:29;92459.06;;;17.24;60.60
39455;BME280;25155;41.890;23.446;2023-08-12T04:04:57;92466.97;;;17.24;60.32
39455;BME280;25155;41.890;23.446;2023-08-12T04:07:24;92458.31;;;17.24;60.24
39455;BME280;25155;41.890;23.446;2023-08-12T04:09:52;92459.88;;;17.25;60.28
39455;BME280;25155;41.890;23.446;2023-08-12T04:12:21;92460.47;;;17.22;60.79
39455;BME280;25155;41.890;23.446;2023-08-12T04:14:48;92457.25;;;17.25;60.43
39455;BME280;25155;41.890;23.446;2023-08-12T04:17:15;92461.41;;;17.26;60.38
39455;BME280;25155;41.890;23.446;2023-08-12T04:19:43;92467.22;;;17.28;60.86
39455;BME280;25155;41.890;23.446;2023-08-12T04:22:10;92461.50;;;17.21;61.28
39455;BME280;25155;41.890;23.446;2023-08-12T04:24:37;92468.38;;;17.22;61.13
39455;BME280;25155;41.890;23.446;2023-08-12T04:27:04;92478.63;;;17.23;60.90
39455;BME280;25155;41.890;23.446;2023-08-12T04:29:33;92472.88;;;17.21;60.79
39455;BME280;25155;41.890;23.446;2023-08-12T04:32:01;92477.81;;;17.23;61.33
39455;BME280;25155;41.890;23.446;2023-08-12T04:34:29;92474.91;;;17.24;61.34
39455;BME280;25155;41.890;23.446;2023-08-12T04:36:56;92465.91;;;17.25;60.96
39455;BME280;25155;41.890;23.446;2023-08-12T04:39:23;92476.19;;;17.27;61.67
39455;BME280;25155;41.890;23.446;2023-08-12T04:41:51;92479.97;;;17.21;63.47
39455;BME280;25155;41.890;23.446;2023-08-12T04:44:18;92475.34;;;17.12;64.11
39455;BME280;25155;41.890;23.446;2023-08-12T04:46:47;92473.91;;;17.06;64.93
39455;BME280;25155;41.890;23.446;2023-08-12T04:49:14;92478.09;;;17.07;64.65
39455;BME280;25155;41.890;23.446;2023-08-12T04:51:41;92481.00;;;17.06;65.16
39455;BME280;25155;41.890;23.446;2023-08-12T04:54:08;92477.09;;;17.03;64.94
39455;BME280;25155;41.890;23.446;2023-08-12T04:56:35;92479.75;;;17.03;65.07
39455;BME280;25155;41.890;23.446;2023-08-12T04:59:03;92473.91;;;17.06;64.97
39455;BME280;25155;41.890;23.446;2023-08-12T05:01:30;92476.16;;;17.13;64.91
39455;BME280;25155;41.890;23.446;2023-08-12T05:03:58;92476.34;;;17.17;64.31
39455;BME280;25155;41.890;23.446;2023-08-12T05:06:26;92482.50;;;17.26;64.56
39455;BME280;25155;41.890;23.446;2023-08-12T05:08:53;92481.34;;;17.32;64.81
39455;BME280;25155;41.890;23.446;2023-08-12T05:11:20;92483.63;;;17.39;64.55
39455;BME280;25155;41.890;23.446;2023-08-12T05:13:47;92478.25;;;17.44;64.12
39455;BME280;25155;41.890;23.446;2023-08-12T05:16:14;92483.13;;;17.50;64.22
39455;BME280;25155;41.890;23.446;2023-08-12T05:18:41;92476.50;;;17.53;64.02
39455;BME280;25155;41.890;23.446;2023-08-12T05:21:10;92474.34;;;17.55;64.25
39455;BME280;25155;41.890;23.446;2023-08-12T05:23:37;92479.25;;;17.62;64.24
39455;BME280;25155;41.890;23.446;2023-08-12T05:26:05;92480.72;;;17.68;64.10
39455;BME280;25155;41.890;23.446;2023-08-12T05:28:32;92482.19;;;17.74;63.96
39455;BME280;25155;41.890;23.446;2023-08-12T05:30:59;92486.88;;;17.77;63.70
39455;BME280;25155;41.890;23.446;2023-08-12T05:33:27;92484.75;;;17.79;63.69
39455;BME280;25155;41.890;23.446;2023-08-12T05:35:54;92476.44;;;17.86;63.43
39455;BME280;25155;41.890;23.446;2023-08-12T05:38:22;92481.94;;;17.89;62.75
39455;BME280;25155;41.890;23.446;2023-08-12T05:40:50;92479.66;;;17.97;62.75
39455;BME280;25155;41.890;23.446;2023-08-12T05:43:17;92485.94;;;18.01;63.18
39455;BME280;25155;41.890;23.446;2023-08-12T05:45:44;92475.56;;;18.04;63.13
39455;BME280;25155;41.890;23.446;2023-08-12T05:48:11;92480.16;;;18.13;63.01
39455;BME280;25155;41.890;23.446;2023-08-12T05:50:39;92477.69;;;18.16;62.84
39455;BME280;25155;41.890;23.446;2023-08-12T05:53:06;92474.94;;;18.21;62.98
39455;BME280;25155;41.890;23.446;2023-08-12T05:55:34;92468.00;;;18.25;63.09
39455;BME280;25155;41.890;23.446;2023-08-12T05:58:02;92469.31;;;18.37;63.15
39455;BME280;25155;41.890;23.446;2023-08-12T06:00:30;92464.91;;;18.46;63.03
39455;BME280;25155;41.890;23.446;2023-08-12T06:02:57;92461.69;;;18.49;63.17
39455;BME280;25155;41.890;23.446;2023-08-12T06:05:24;92454.72;;;18.53;62.62
39455;BME280;25155;41.890;23.446;2023-08-12T06:07:52;92455.09;;;18.60;62.63
39455;BME280;25155;41.890;23.446;2023-08-12T06:10:19;92452.34;;;18.66;62.04
39455;BME280;25155;41.890;23.446;2023-08-12T06:12:47;92445.66;;;18.68;61.95
39455;BME280;25155;41.890;23.446;2023-08-12T06:15:15;92443.69;;;18.74;61.16
39455;BME280;25155;41.890;23.446;2023-08-12T06:17:42;92445.75;;;18.77;60.63
39455;BME280;25155;41.890;23.446;2023-08-12T06:20:10;92445.34;;;18.84;60.55
39455;BME280;25155;41.890;23.446;2023-08-12T06:22:38;92449.09;;;18.91;60.72
39455;BME280;25155;41.890;23.446;2023-08-12T06:25:05;92446.84;;;18.98;60.45
39455;BME280;25155;41.890;23.446;2023-08-12T06:27:33;92449.53;;;19.07;60.46
39455;BME280;25155;41.890;23.446;2023-08-12T06:30:01;92448.63;;;19.12;60.20
39455;BME280;25155;41.890;23.446;2023-08-12T06:32:28;92442.09;;;19.18;59.44
39455;BME280;25155;41.890;23.446;2023-08-12T06:34:56;92439.34;;;19.23;58.71
39455;BME280;25155;41.890;23.446;2023-08-12T06:37:23;92445.75;;;19.31;58.35
39455;BME280;25155;41.890;23.446;2023-08-12T06:39:50;92442.22;;;19.35;57.57
39455;BME280;25155;41.890;23.446;2023-08-12T06:42:17;92437.09;;;19.39;56.75
39455;BME280;25155;41.890;23.446;2023-08-12T06:44:44;92436.78;;;19.41;56.94
39455;BME280;25155;41.890;23.446;2023-08-12T06:47:13;92425.91;;;19.42;57.68
39455;BME280;25155;41.890;23.446;2023-08-12T06:49:40;92425.47;;;19.49;57.87
39455;BME280;25155;41.890;23.446;2023-08-12T06:52:07;92428.44;;;19.56;58.40
39455;BME280;25155;41.890;23.446;2023-08-12T06:54:34;92429.41;;;19.69;58.70
39455;BME280;25155;41.890;23.446;2023-08-12T06:57:01;92429.97;;;19.80;56.96
39455;BME280;25155;41.890;23.446;2023-08-12T06:59:28;92429.06;;;19.93;57.91
39455;BME280;25155;41.890;23.446;2023-08-12T07:01:55;92428.63;;;20.08;58.06
39455;BME280;25155;41.890;23.446;2023-08-12T07:04:24;92428.31;;;20.10;54.16
39455;BME280;25155;41.890;23.446;2023-08-12T07:06:52;92426.94;;;20.21;55.20
39455;BME280;25155;41.890;23.446;2023-08-12T07:09:19;92426.94;;;20.30;54.90
39455;BME280;25155;41.890;23.446;2023-08-12T07:11:46;92423.34;;;20.43;54.31
39455;BME280;25155;41.890;23.446;2023-08-12T07:14:14;92413.53;;;20.53;54.48
39455;BME280;25155;41.890;23.446;2023-08-12T07:16:41;92415.09;;;20.62;54.69
39455;BME280;25155;41.890;23.446;2023-08-12T07:19:08;92418.84;;;20.70;52.24
39455;BME280;25155;41.890;23.446;2023-08-12T07:21:36;92418.69;;;20.75;52.17
39455;BME280;25155;41.890;23.446;2023-08-12T07:24:04;92417.91;;;20.83;51.88
39455;BME280;25155;41.890;23.446;2023-08-12T07:26:31;92407.47;;;20.87;50.98
39455;BME280;25155;41.890;23.446;2023-08-12T07:28:58;92411.97;;;20.87;51.76
39455;BME280;25155;41.890;23.446;2023-08-12T07:31:25;92415.88;;;20.89;51.83
39455;BME280;25155;41.890;23.446;2023-08-12T07:33:52;92410.72;;;20.93;51.11
39455;BME280;25155;41.890;23.446;2023-08-12T07:36:19;92407.75;;;20.94;50.51
39455;BME280;25155;41.890;23.446;2023-08-12T07:38:48;92405.25;;;20.98;50.89
39455;BME280;25155;41.890;23.446;2023-08-12T07:41:15;92400.72;;;21.07;51.68
39455;BME280;25155;41.890;23.446;2023-08-12T07:43:42;92401.63;;;21.20;51.29
39455;BME280;25155;41.890;23.446;2023-08-12T07:46:09;92396.28;;;21.29;51.06
39455;BME280;25155;41.890;23.446;2023-08-12T07:48:36;92385.31;;;21.39;49.91
39455;BME280;25155;41.890;23.446;2023-08-12T07:51:04;92394.06;;;21.48;48.73
39455;BME280;25155;41.890;23.446;2023-08-12T07:53:31;92389.28;;;21.63;49.17
39455;BME280;25155;41.890;23.446;2023-08-12T07:56:00;92388.28;;;21.76;48.19
39455;BME280;25155;41.890;23.446;2023-08-12T07:58:27;92389.50;;;21.87;46.94
39455;BME280;25155;41.890;23.446;2023-08-12T08:00:54;92386.94;;;22.00;47.86
39455;BME280;25155;41.890;23.446;2023-08-12T08:03:21;92386.22;;;22.11;46.60
39455;BME280;25155;41.890;23.446;2023-08-12T08:05:48;92383.31;;;22.25;46.78
39455;BME280;25155;41.890;23.446;2023-08-12T08:08:16;92378.66;;;22.43;47.14
39455;BME280;25155;41.890;23.446;2023-08-12T08:10:43;92384.31;;;22.63;46.65
39455;BME280;25155;41.890;23.446;2023-08-12T08:13:11;92385.38;;;22.83;46.01
39455;BME280;25155;41.890;23.446;2023-08-12T08:15:39;92385.97;;;23.01;44.16
39455;BME280;25155;41.890;23.446;2023-08-12T08:18:06;92379.16;;;23.12;44.66
39455;BME280;25155;41.890;23.446;2023-08-12T08:20:33;92377.50;;;23.20;45.57
39455;BME280;25155;41.890;23.446;2023-08-12T08:23:00;92367.56;;;23.42;46.20
39455;BME280;25155;41.890;23.446;2023-08-12T08:25:28;92372.47;;;23.52;42.56
39455;BME280;25155;41.890;23.446;2023-08-12T08:27:55;92371.09;;;23.58;42.61
39455;BME280;25155;41.890;23.446;2023-08-12T08:30:23;92368.00;;;23.56;41.90
39455;BME280;25155;41.890;23.446;2023-08-12T08:32:51;92370.44;;;23.61;41.83
39455;BME280;25155;41.890;23.446;2023-08-12T08:35:18;92367.34;;;23.59;40.23
39455;BME280;25155;41.890;23.446;2023-08-12T08:37:45;92355.94;;;23.58;41.21
39455;BME280;25155;41.890;23.446;2023-08-12T08:40:12;92355.38;;;23.53;40.40
39455;BME280;25155;41.890;23.446;2023-08-12T08:42:41;92351.34;;;23.47;40.65
39455;BME280;25155;41.890;23.446;2023-08-12T08:45:12;92358.13;;;23.56;41.21
39455;BME280;25155;41.890;23.446;2023-08-12T08:47:42;92359.69;;;23.57;40.56
39455;BME280;25155;41.890;23.446;2023-08-12T08:50:10;92356.69;;;23.59;39.28
39455;BME280;25155;41.890;23.446;2023-08-12T08:52:37;92353.69;;;23.73;40.95
39455;BME280;25155;41.890;23.446;2023-08-12T08:55:05;92355.38;;;23.90;41.86
39455;BME280;25155;41.890;23.446;2023-08-12T08:57:32;92349.03;;;24.07;38.18
39455;BME280;25155;41.890;23.446;2023-08-12T08:59:59;92353.78;;;24.13;38.83
39455;BME280;25155;41.890;23.446;2023-08-12T09:02:27;92335.56;;;24.16;40.13
39455;BME280;25155;41.890;23.446;2023-08-12T09:04:55;92341.56;;;24.25;40.23
39455;BME280;25155;41.890;23.446;2023-08-12T09:07:24;92337.00;;;24.25;39.59
39455;BME280;25155;41.890;23.446;2023-08-12T09:09:52;92343.19;;;24.29;41.00
39455;BME280;25155;41.890;23.446;2023-08-12T09:12:20;92347.94;;;24.36;41.21
39455;BME280;25155;41.890;23.446;2023-08-12T09:14:48;92339.94;;;24.36;41.14
39455;BME280;25155;41.890;23.446;2023-08-12T09:17:15;92337.84;;;24.29;40.65
39455;BME280;25155;41.890;23.446;2023-08-12T09:19:42;92336.22;;;24.25;40.75
39455;BME280;25155;41.890;23.446;2023-08-12T09:22:12;92340.22;;;24.19;41.22
39455;BME280;25155;41.890;23.446;2023-08-12T09:24:39;92344.88;;;24.22;41.23
39455;BME280;25155;41.890;23.446;2023-08-12T09:27:06;92338.34;;;24.19;42.13
39455;BME280;25155;41.890;23.446;2023-08-12T09:29:34;92332.47;;;24.13;42.23
39455;BME280;25155;41.890;23.446;2023-08-12T09:32:11;92323.81;;;24.17;42.51
39455;BME280;25155;41.890;23.446;2023-08-12T09:34:46;92324.44;;;24.26;41.28
39455;BME280;25155;41.890;23.446;2023-08-12T09:37:16;92334.19;;;24.34;42.30
39455;BME280;25155;41.890;23.446;2023-08-12T09:39:43;92325.59;;;24.41;41.75
39455;BME280;25155;41.890;23.446;2023-08-12T09:42:11;92325.03;;;24.47;41.95
39455;BME280;25155;41.890;23.446;2023-08-12T09:44:39;92323.78;;;24.57;40.65
39455;BME280;25155;41.890;23.446;2023-08-12T09:47:07;92321.56;;;24.59;39.76
39455;BME280;25155;41.890;23.446;2023-08-12T09:49:35;92319.25;;;24.58;40.09
39455;BME280;25155;41.890;23.446;2023-08-12T09:52:03;92323.66;;;24.66;40.49
39455;BME280;25155;41.890;23.446;2023-08-12T09:54:33;92321.84;;;24.70;41.07
39455;BME280;25155;41.890;23.446;2023-08-12T09:57:02;92313.59;;;24.75;40.56
39455;BME280;25155;41.890;23.446;2023-08-12T09:59:32;92307.44;;;24.87;41.22
39455;BME280;25155;41.890;23.446;2023-08-12T10:02:01;92312.50;;;24.92;40.75
39455;BME280;25155;41.890;23.446;2023-08-12T10:04:37;92306.16;;;24.97;40.26
39455;BME280;25155;41.890;23.446;2023-08-12T10:07:08;92308.56;;;25.02;39.34
39455;BME280;25155;41.890;23.446;2023-08-12T10:09:38;92301.22;;;24.99;39.04
39455;BME280;25155;41.890;23.446;2023-08-12T10:12:07;92305.38;;;25.12;37.86
39455;BME280;25155;41.890;23.446;2023-08-12T10:14:34;92303.31;;;25.21;37.64
39455;BME280;25155;41.890;23.446;2023-08-12T10:17:03;92297.97;;;25.21;37.27
39455;BME280;25155;41.890;23.446;2023-08-12T10:19:32;92292.84;;;25.29;38.48
39455;BME280;25155;41.890;23.446;2023-08-12T10:22:02;92293.88;;;25.40;38.56
39455;BME280;25155;41.890;23.446;2023-08-12T10:24:31;92295.75;;;25.55;38.55
39455;BME280;25155;41.890;23.446;2023-08-12T10:27:03;92298.81;;;25.73;38.81
39455;BME280;25155;41.890;23.446;2023-08-12T10:29:30;92292.59;;;25.85;36.17
39455;BME280;25155;41.890;23.446;2023-08-12T10:31:58;92289.19;;;25.88;35.42
39455;BME280;25155;41.890;23.446;2023-08-12T10:34:26;92288.56;;;25.95;36.06
39455;BME280;25155;41.890;23.446;2023-08-12T10:36:54;92274.94;;;25.81;33.23
39455;BME280;25155;41.890;23.446;2023-08-12T10:39:24;92275.25;;;25.59;33.29
39455;BME280;25155;41.890;23.446;2023-08-12T10:41:55;92280.44;;;25.52;34.32
39455;BME280;25155;41.890;23.446;2023-08-12T10:44:28;92276.88;;;25.48;35.01
39455;BME280;25155;41.890;23.446;2023-08-12T10:47:07;92268.94;;;25.52;35.05
39455;BME280;25155;41.890;23.446;2023-08-12T10:49:38;92268.63;;;25.21;35.34
39455;BME280;25155;41.890;23.446;2023-08-12T10:52:05;92269.13;;;25.59;35.99
39455;BME280;25155;41.890;23.446;2023-08-12T10:54:33;92272.19;;;25.77;36.39
39455;BME280;25155;41.890;23.446;2023-08-12T10:57:05;92260.97;;;25.87;35.80
39455;BME280;25155;41.890;23.446;2023-08-12T10:59:54;92268.81;;;25.80;34.47
39455;BME280;25155;41.890;23.446;2023-08-12T11:02:26;92255.97;;;25.86;35.19
39455;BME280;25155;41.890;23.446;2023-08-12T11:04:55;92257.66;;;25.94;35.50
39455;BME280;25155;41.890;23.446;2023-08-12T11:07:32;92252.53;;;26.05;35.85
39455;BME280;25155;41.890;23.446;2023-08-12T11:10:05;92250.44;;;26.14;36.69
39455;BME280;25155;41.890;23.446;2023-08-12T11:12:39;92251.16;;;26.30;36.64
39455;BME280;25155;41.890;23.446;2023-08-12T11:15:10;92253.03;;;26.49;35.94
39455;BME280;25155;41.890;23.446;2023-08-12T11:17:39;92246.50;;;26.66;35.24
39455;BME280;25155;41.890;23.446;2023-08-12T11:20:09;92249.28;;;26.74;33.73
39455;BME280;25155;41.890;23.446;2023-08-12T11:22:37;92238.53;;;26.70;32.61
39455;BME280;25155;41.890;23.446;2023-08-12T11:25:06;92244.94;;;26.65;32.84
39455;BME280;25155;41.890;23.446;2023-08-12T11:27:39;92234.19;;;26.23;32.36
39455;BME280;25155;41.890;23.446;2023-08-12T11:30:09;92234.97;;;26.04;33.29
39455;BME280;25155;41.890;23.446;2023-08-12T11:32:38;92235.06;;;25.91;33.58
39455;BME280;25155;41.890;23.446;2023-08-12T11:35:07;92239.00;;;25.78;32.80
39455;BME280;25155;41.890;23.446;2023-08-12T11:37:35;92238.84;;;25.71;32.97
39455;BME280;25155;41.890;23.446;2023-08-12T11:40:04;92241.25;;;25.76;33.13
39455;BME280;25155;41.890;23.446;2023-08-12T11:42:32;92244.06;;;25.83;33.62
39455;BME280;25155;41.890;23.446;2023-08-12T11:44:59;92239.66;;;25.91;33.61
39455;BME280;25155;41.890;23.446;2023-08-12T11:47:28;92238.53;;;25.92;33.92
39455;BME280;25155;41.890;23.446;2023-08-12T11:49:56;92237.41;;;25.93;32.95
39455;BME280;25155;41.890;23.446;2023-08-12T11:52:23;92227.25;;;25.99;34.09
39455;BME280;25155;41.890;23.446;2023-08-12T11:54:51;92221.63;;;26.04;33.41
39455;BME280;25155;41.890;23.446;2023-08-12T11:57:19;92227.31;;;26.02;32.55
39455;BME280;25155;41.890;23.446;2023-08-12T11:59:49;92225.59;;;25.94;32.29
39455;BME280;25155;41.890;23.446;2023-08-12T12:02:16;92223.69;;;25.94;33.45
39455;BME280;25155;41.890;23.446;2023-08-12T12:04:46;92218.78;;;25.96;32.93
39455;BME280;25155;41.890;23.446;2023-08-12T12:07:19;92222.31;;;26.01;32.97
39455;BME280;25155;41.890;23.446;2023-08-12T12:09:50;92226.34;;;25.94;33.74
39455;BME280;25155;41.890;23.446;2023-08-12T12:12:21;92222.75;;;25.87;33.94
39455;BME280;25155;41.890;23.446;2023-08-12T12:14:48;92216.59;;;25.83;34.92
39455;BME280;25155;41.890;23.446;2023-08-12T12:17:15;92221.28;;;25.89;36.63
39455;BME280;25155;41.890;23.446;2023-08-12T12:19:43;92218.78;;;25.77;36.20
39455;BME280;25155;41.890;23.446;2023-08-12T12:22:11;92223.44;;;25.64;38.31
39455;BME280;25155;41.890;23.446;2023-08-12T12:24:45;92229.41;;;25.57;38.44
39455;BME280;25155;41.890;23.446;2023-08-12T12:27:13;92225.59;;;25.58;38.74
39455;BME280;25155;41.890;23.446;2023-08-12T12:29:41;92224.06;;;25.57;38.39
39455;BME280;25155;41.890;23.446;2023-08-12T12:32:08;92225.88;;;25.53;38.63
39455;BME280;25155;41.890;23.446;2023-08-12T12:34:35;92221.81;;;25.59;39.87
39455;BME280;25155;41.890;23.446;2023-08-12T12:37:03;92218.88;;;25.65;39.83
39455;BME280;25155;41.890;23.446;2023-08-12T12:39:31;92225.59;;;25.58;40.19
39455;BME280;25155;41.890;23.446;2023-08-12T12:41:58;92219.97;;;25.44;40.70
39455;BME280;25155;41.890;23.446;2023-08-12T12:44:26;92224.31;;;25.33;40.46
39455;BME280;25155;41.890;23.446;2023-08-12T12:46:53;92218.00;;;25.25;40.59
39455;BME280;25155;41.890;23.446;2023-08-12T12:49:20;92215.50;;;25.16;40.97
39455;BME280;25155;41.890;23.446;2023-08-12T12:51:48;92215.16;;;25.02;41.45
39455;BME280;25155;41.890;23.446;2023-08-12T12:54:16;92212.75;;;24.97;41.24